Thunder radar more information blitzortung!


Löydät sääaseman tiedot myös:

European Weather Network

Finland Weather Exchange

Weather Underground

AWEKAS



Weather Underground säähistoriasivu

Päivittäin yhteenveto Helmikuu 5, 2017 Yksiköt:  Molemmat    Englantilaiset   Metriset
« Edellinen Päivä
Seuraava Päivä »
Päivittäin Viikoittain Kuukausittain Vuosittain Mukautettu
  Korkea: Matala: Keskiarvo:
Lämpötila: TemperatureC °F /  -17.8 °C -5.1 °F /  -20.6 °C -2.5 °F /  -19.2 °C
Kastepiste: DewpointC °F /  -17.8 °C -6.4 °F /  -21.3 °C -3.4 °F /  -19.7 °C
Kosteus: Humidity % 90 % 93 %
Tuulen nopeus: WindSpeedKMH mph /  0 km/h - 0.7 mph /  1.1 km/h
Tuulenpuuska: WindSpeedGustKMH mph /  0 km/h - -
Tuuli:- - SE
Ilmanpaine: PressurehPa in /  0 hPa 1015.1 in /  34371.3 hPa -
Sade: 0.0 in /  0 mm    
Historical Graphs
 
 
Taulukkotiedot Helmikuu 5, 2017
Aika Lämpötila Kastepiste Ilmanpaine Tuuli Tuulen nopeus Tuulenpuuska Kosteus Sademäärä (tunneittain)
TemperatureC °F /  -17.8 °C DewpointC °F /  -17.8 °C PressurehPa in /  0 hPa Calm     Humidity % HourlyPrecipMM in /  0 mm
00:00 0.1 °F /  -17.7 °C -0.2 °F /  -17.9 °C 1015.1 in /  34371.3 hPa Calm   3.2 mph /  5.1 km/h 98 % 0.0 in /  0 mm
00:15 0.1 °F /  -17.7 °C -0.2 °F /  -17.9 °C 1015.1 in /  34371.3 hPa Calm   4.8 mph /  7.7 km/h 98 % 0.0 in /  0 mm
00:30 0.1 °F /  -17.7 °C -0.2 °F /  -17.9 °C 1015.5 in /  34384.8 hPa Calm   3.2 mph /  5.1 km/h 98 % 0.0 in /  0 mm
00:45 0.0 °F /  -17.8 °C -0.3 °F /  -17.9 °C 1015.5 in /  34384.8 hPa Calm   6.4 mph /  10.3 km/h 98 % 0.0 in /  0 mm
01:00 -0.1 °F /  -17.8 °C -0.5 °F /  -18.1 °C 1015.5 in /  34384.8 hPa Calm   1.6 mph /  2.6 km/h 97 % 0.0 in /  0 mm
01:15 -0.2 °F /  -17.9 °C -0.6 °F /  -18.1 °C 1015.8 in /  34395 hPa Calm   3.2 mph /  5.1 km/h 97 % 0.0 in /  0 mm
01:30 -0.2 °F /  -17.9 °C -0.6 °F /  -18.1 °C 1015.8 in /  34395 hPa Calm   3.2 mph /  5.1 km/h 97 % 0.0 in /  0 mm
01:45 -0.3 °F /  -17.9 °C -0.6 °F /  -18.1 °C 1015.8 in /  34395 hPa Calm   3.2 mph /  5.1 km/h 98 % 0.0 in /  0 mm
02:00 -0.4 °F /  -18 °C -0.7 °F /  -18.2 °C 1015.8 in /  34395 hPa Calm   8.0 mph /  12.9 km/h 98 % 0.0 in /  0 mm
02:15 -0.4 °F /  -18 °C -0.7 °F /  -18.2 °C 1015.8 in /  34395 hPa Calm   6.4 mph /  10.3 km/h 98 % 0.0 in /  0 mm
02:30 -0.4 °F /  -18 °C -0.9 °F /  -18.3 °C 1016.1 in /  34405.1 hPa Calm   1.6 mph /  2.6 km/h 97 % 0.0 in /  0 mm
02:45 -0.4 °F /  -18 °C -0.9 °F /  -18.3 °C 1016.1 in /  34405.1 hPa Calm   6.4 mph /  10.3 km/h 97 % 0.0 in /  0 mm
03:00 -0.5 °F /  -18.1 °C -0.9 °F /  -18.3 °C 1016.1 in /  34405.1 hPa Calm   1.6 mph /  2.6 km/h 97 % 0.0 in /  0 mm
03:15 -0.5 °F /  -18.1 °C -0.9 °F /  -18.3 °C 1016.1 in /  34405.1 hPa Calm   6.4 mph /  10.3 km/h 97 % 0.0 in /  0 mm
03:30 -0.6 °F /  -18.1 °C -1.0 °F /  -18.3 °C 1016.1 in /  34405.1 hPa Calm   8.0 mph /  12.9 km/h 97 % 0.0 in /  0 mm
03:45 -0.6 °F /  -18.1 °C -1.0 °F /  -18.3 °C 1016.1 in /  34405.1 hPa Calm   6.4 mph /  10.3 km/h 97 % 0.0 in /  0 mm
04:00 -0.7 °F /  -18.2 °C -1.1 °F /  -18.4 °C 1016.1 in /  34405.1 hPa Calm     97 % 0.0 in /  0 mm
04:15 -0.7 °F /  -18.2 °C -1.1 °F /  -18.4 °C 1016.5 in /  34418.7 hPa ESE 1.6 mph /  2.6 km/h 9.7 mph /  15.6 km/h 97 % 0.0 in /  0 mm
04:30 -0.8 °F /  -18.2 °C -1.2 °F /  -18.4 °C 1016.5 in /  34418.7 hPa Calm   3.2 mph /  5.1 km/h 97 % 0.0 in /  0 mm
04:45 -0.9 °F /  -18.3 °C -1.3 °F /  -18.5 °C 1016.8 in /  34428.8 hPa Calm   3.2 mph /  5.1 km/h 97 % 0.0 in /  0 mm
05:00 -1.0 °F /  -18.3 °C -1.4 °F /  -18.6 °C 1016.8 in /  34428.8 hPa Calm   1.6 mph /  2.6 km/h 97 % 0.0 in /  0 mm
05:15 -1.1 °F /  -18.4 °C -1.5 °F /  -18.6 °C 1017.2 in /  34442.4 hPa Calm   3.2 mph /  5.1 km/h 97 % 0.0 in /  0 mm
05:30 -1.2 °F /  -18.4 °C -1.6 °F /  -18.7 °C 1017.2 in /  34442.4 hPa Calm   3.2 mph /  5.1 km/h 97 % 0.0 in /  0 mm
05:45 -1.2 °F /  -18.4 °C -1.6 °F /  -18.7 °C 1017.5 in /  34452.6 hPa Calm   1.6 mph /  2.6 km/h 97 % 0.0 in /  0 mm
06:00 -1.2 °F /  -18.4 °C -1.6 °F /  -18.7 °C 1017.5 in /  34452.6 hPa Calm   3.2 mph /  5.1 km/h 97 % 0.0 in /  0 mm
06:15 -1.3 °F /  -18.5 °C -1.7 °F /  -18.7 °C 1017.8 in /  34462.7 hPa Calm   1.6 mph /  2.6 km/h 97 % 0.0 in /  0 mm
06:30 -1.3 °F /  -18.5 °C -1.7 °F /  -18.7 °C 1017.8 in /  34462.7 hPa South 1.6 mph /  2.6 km/h 6.4 mph /  10.3 km/h 97 % 0.0 in /  0 mm
06:45 -1.3 °F /  -18.5 °C -1.7 °F /  -18.7 °C 1018.2 in /  34476.3 hPa Calm   3.2 mph /  5.1 km/h 97 % 0.0 in /  0 mm
07:00 -1.3 °F /  -18.5 °C -1.9 °F /  -18.8 °C 1018.2 in /  34476.3 hPa Calm   3.2 mph /  5.1 km/h 96 % 0.0 in /  0 mm
07:15 -1.3 °F /  -18.5 °C -1.9 °F /  -18.8 °C 1018.5 in /  34486.4 hPa Calm   1.6 mph /  2.6 km/h 96 % 0.0 in /  0 mm
07:30 -1.4 °F /  -18.6 °C -1.9 °F /  -18.8 °C 1018.5 in /  34486.4 hPa Calm   6.4 mph /  10.3 km/h 96 % 0.0 in /  0 mm
07:45 -1.4 °F /  -18.6 °C -1.9 °F /  -18.8 °C 1018.8 in /  34496.6 hPa Calm   3.2 mph /  5.1 km/h 96 % 0.0 in /  0 mm
08:00 -1.4 °F /  -18.6 °C -2.0 °F /  -18.9 °C 1018.8 in /  34496.6 hPa Calm   8.0 mph /  12.9 km/h 96 % 0.0 in /  0 mm
08:15 -1.5 °F /  -18.6 °C -2.1 °F /  -18.9 °C 1019.2 in /  34510.1 hPa Calm   6.4 mph /  10.3 km/h 96 % 0.0 in /  0 mm
08:30 -1.6 °F /  -18.7 °C -2.1 °F /  -18.9 °C 1019.2 in /  34510.1 hPa Calm   8.0 mph /  12.9 km/h 96 % 0.0 in /  0 mm
08:45 -1.6 °F /  -18.7 °C -2.3 °F /  -19.1 °C 1019.5 in /  34520.3 hPa Calm   8.0 mph /  12.9 km/h 95 % 0.0 in /  0 mm
09:00 -1.6 °F /  -18.7 °C -2.3 °F /  -19.1 °C 1019.5 in /  34520.3 hPa Calm   8.0 mph /  12.9 km/h 95 % 0.0 in /  0 mm
09:15 -1.6 °F /  -18.7 °C -2.3 °F /  -19.1 °C 1019.9 in /  34533.8 hPa ESE 1.6 mph /  2.6 km/h 8.0 mph /  12.9 km/h 95 % 0.0 in /  0 mm
09:30 -1.6 °F /  -18.7 °C -2.3 °F /  -19.1 °C 1019.9 in /  34533.8 hPa Calm   4.8 mph /  7.7 km/h 95 % 0.0 in /  0 mm
09:45 -1.6 °F /  -18.7 °C -2.3 °F /  -19.1 °C 1020.2 in /  34544 hPa SE 1.6 mph /  2.6 km/h 9.7 mph /  15.6 km/h 95 % 0.0 in /  0 mm
10:00 -1.6 °F /  -18.7 °C -2.3 °F /  -19.1 °C 1020.2 in /  34544 hPa SE 1.6 mph /  2.6 km/h 8.0 mph /  12.9 km/h 95 % 0.0 in /  0 mm
10:15 -1.6 °F /  -18.7 °C -2.3 °F /  -19.1 °C 1020.5 in /  34554.1 hPa NE 1.6 mph /  2.6 km/h 11.3 mph /  18.2 km/h 95 % 0.0 in /  0 mm
10:30 -1.7 °F /  -18.7 °C -2.4 °F /  -19.1 °C 1020.9 in /  34567.7 hPa Calm   8.0 mph /  12.9 km/h 95 % 0.0 in /  0 mm
10:45 -1.8 °F /  -18.8 °C -2.5 °F /  -19.2 °C 1020.9 in /  34567.7 hPa Calm   6.4 mph /  10.3 km/h 95 % 0.0 in /  0 mm
11:00 -1.9 °F /  -18.8 °C -2.7 °F /  -19.3 °C 1021.2 in /  34577.8 hPa SE 1.6 mph /  2.6 km/h 6.4 mph /  10.3 km/h 94 % 0.0 in /  0 mm
11:15 -1.9 °F /  -18.8 °C -2.8 °F /  -19.3 °C 1021.6 in /  34591.4 hPa SE 1.6 mph /  2.6 km/h 8.0 mph /  12.9 km/h 94 % 0.0 in /  0 mm
11:30 -2.0 °F /  -18.9 °C -2.8 °F /  -19.3 °C 1021.6 in /  34591.4 hPa SE 1.6 mph /  2.6 km/h 8.0 mph /  12.9 km/h 94 % 0.0 in /  0 mm
11:45 -2.1 °F /  -18.9 °C -2.9 °F /  -19.4 °C 1021.9 in /  34601.5 hPa ESE 1.6 mph /  2.6 km/h 6.4 mph /  10.3 km/h 94 % 0.0 in /  0 mm
12:00 -2.2 °F /  -19 °C -3.1 °F /  -19.5 °C 1021.9 in /  34601.5 hPa ESE 1.6 mph /  2.6 km/h 8.0 mph /  12.9 km/h 94 % 0.0 in /  0 mm
12:15 -2.4 °F /  -19.1 °C -3.4 °F /  -19.7 °C 1022.2 in /  34611.7 hPa South 1.6 mph /  2.6 km/h 16.1 mph /  25.9 km/h 93 % 0.0 in /  0 mm
12:30 -2.7 °F /  -19.3 °C -3.7 °F /  -19.8 °C 1022.2 in /  34611.7 hPa ESE 1.6 mph /  2.6 km/h 11.3 mph /  18.2 km/h 93 % 0.0 in /  0 mm
12:45 -2.9 °F /  -19.4 °C -4.0 °F /  -20 °C 1022.6 in /  34625.2 hPa SE 3.2 mph /  5.1 km/h 16.1 mph /  25.9 km/h 92 % 0.0 in /  0 mm
13:00 -2.8 °F /  -19.3 °C -4.0 °F /  -20 °C 1022.6 in /  34625.2 hPa Calm   9.7 mph /  15.6 km/h 92 % 0.0 in /  0 mm
13:15 -2.8 °F /  -19.3 °C -4.0 °F /  -20 °C 1022.9 in /  34635.4 hPa Calm   3.2 mph /  5.1 km/h 92 % 0.0 in /  0 mm
13:30 -2.8 °F /  -19.3 °C -4.0 °F /  -20 °C 1022.9 in /  34635.4 hPa SSE 1.6 mph /  2.6 km/h 9.7 mph /  15.6 km/h 92 % 0.0 in /  0 mm
13:45 -2.9 °F /  -19.4 °C -4.1 °F /  -20.1 °C 1022.9 in /  34635.4 hPa SSE 1.6 mph /  2.6 km/h 8.0 mph /  12.9 km/h 92 % 0.0 in /  0 mm
14:00 -3.2 °F /  -19.6 °C -4.4 °F /  -20.2 °C 1023.2 in /  34645.6 hPa ESE 1.6 mph /  2.6 km/h 6.4 mph /  10.3 km/h 91 % 0.0 in /  0 mm
14:15 -3.4 °F /  -19.7 °C -4.6 °F /  -20.3 °C 1023.6 in /  34659.1 hPa ESE 1.6 mph /  2.6 km/h 8.0 mph /  12.9 km/h 91 % 0.0 in /  0 mm
14:45 -3.4 °F /  -19.7 °C -4.6 °F /  -20.3 °C 1023.6 in /  34659.1 hPa Calm   8.0 mph /  12.9 km/h 92 % 0.0 in /  0 mm
15:00 -3.5 °F /  -19.7 °C -4.6 °F /  -20.3 °C 1023.9 in /  34669.3 hPa ESE 1.6 mph /  2.6 km/h 8.0 mph /  12.9 km/h 92 % 0.0 in /  0 mm
15:15 -3.5 °F /  -19.7 °C -4.6 °F /  -20.3 °C 1023.9 in /  34669.3 hPa Calm   8.0 mph /  12.9 km/h 92 % 0.0 in /  0 mm
15:30 -3.4 °F /  -19.7 °C -4.4 °F /  -20.2 °C 1024.3 in /  34682.8 hPa ESE 1.6 mph /  2.6 km/h 8.0 mph /  12.9 km/h 93 % 0.0 in /  0 mm
15:45 -3.6 °F /  -19.8 °C -4.7 °F /  -20.4 °C 1024.3 in /  34682.8 hPa SE 1.6 mph /  2.6 km/h 12.9 mph /  20.8 km/h 92 % 0.0 in /  0 mm
16:00 -3.9 °F /  -19.9 °C -5.1 °F /  -20.6 °C 1024.6 in /  34693 hPa East 3.2 mph /  5.1 km/h 14.5 mph /  23.3 km/h 91 % 0.0 in /  0 mm
16:15 -4.3 °F /  -20.2 °C -5.7 °F /  -20.9 °C 1024.6 in /  34693 hPa SE 1.6 mph /  2.6 km/h 12.9 mph /  20.8 km/h 90 % 0.0 in /  0 mm
16:30 -4.6 °F /  -20.3 °C -5.8 °F /  -21 °C 1024.9 in /  34703.1 hPa SE 1.6 mph /  2.6 km/h 9.7 mph /  15.6 km/h 91 % 0.0 in /  0 mm
16:45 -4.7 °F /  -20.4 °C -5.9 °F /  -21.1 °C 1024.9 in /  34703.1 hPa ESE 3.2 mph /  5.1 km/h 12.9 mph /  20.8 km/h 91 % 0.0 in /  0 mm
17:00 -4.8 °F /  -20.4 °C -6.0 °F /  -21.1 °C 1025.3 in /  34716.7 hPa East 1.6 mph /  2.6 km/h 11.3 mph /  18.2 km/h 91 % 0.0 in /  0 mm
17:15 -4.8 °F /  -20.4 °C -6.1 °F /  -21.2 °C 1025.3 in /  34716.7 hPa SE 1.6 mph /  2.6 km/h 9.7 mph /  15.6 km/h 91 % 0.0 in /  0 mm
17:30 -4.9 °F /  -20.5 °C -6.1 °F /  -21.2 °C 1025.6 in /  34726.8 hPa SE 1.6 mph /  2.6 km/h 6.4 mph /  10.3 km/h 91 % 0.0 in /  0 mm
17:45 -4.9 °F /  -20.5 °C -6.1 °F /  -21.2 °C 1025.6 in /  34726.8 hPa Calm   8.0 mph /  12.9 km/h 91 % 0.0 in /  0 mm
18:00 -4.9 °F /  -20.5 °C -6.3 °F /  -21.3 °C 1026.3 in /  34750.5 hPa SSE 1.6 mph /  2.6 km/h 12.9 mph /  20.8 km/h 90 % 0.0 in /  0 mm
18:15 -4.9 °F /  -20.5 °C -6.3 °F /  -21.3 °C 1026.3 in /  34750.5 hPa SE 1.6 mph /  2.6 km/h 12.9 mph /  20.8 km/h 90 % 0.0 in /  0 mm
18:30 -4.8 °F /  -20.4 °C -6.2 °F /  -21.2 °C 1026.3 in /  34750.5 hPa Calm   6.4 mph /  10.3 km/h 90 % 0.0 in /  0 mm
18:45 -4.8 °F /  -20.4 °C -6.2 °F /  -21.2 °C 1026.6 in /  34760.7 hPa SSE 1.6 mph /  2.6 km/h 8.0 mph /  12.9 km/h 90 % 0.0 in /  0 mm
19:00 -4.8 °F /  -20.4 °C -6.2 °F /  -21.2 °C 1026.6 in /  34760.7 hPa Calm   1.6 mph /  2.6 km/h 90 % 0.0 in /  0 mm
19:15 -4.7 °F /  -20.4 °C -6.0 °F /  -21.1 °C 1026.6 in /  34760.7 hPa Calm     91 % 0.0 in /  0 mm
19:30 -4.7 °F /  -20.4 °C -5.9 °F /  -21.1 °C 1027.0 in /  34774.2 hPa Calm   3.2 mph /  5.1 km/h 91 % 0.0 in /  0 mm
19:45 -4.6 °F /  -20.3 °C -5.9 °F /  -21.1 °C 1027.0 in /  34774.2 hPa Calm   3.2 mph /  5.1 km/h 91 % 0.0 in /  0 mm
20:00 -4.6 °F /  -20.3 °C -5.9 °F /  -21.1 °C 1027.0 in /  34774.2 hPa Calm   3.2 mph /  5.1 km/h 91 % 0.0 in /  0 mm
20:15 -4.5 °F /  -20.3 °C -5.6 °F /  -20.9 °C 1027.3 in /  34784.4 hPa Calm   3.2 mph /  5.1 km/h 92 % 0.0 in /  0 mm
20:30 -4.4 °F /  -20.2 °C -5.5 °F /  -20.8 °C 1027.3 in /  34784.4 hPa Calm   1.6 mph /  2.6 km/h 92 % 0.0 in /  0 mm
20:45 -4.4 °F /  -20.2 °C -5.5 °F /  -20.8 °C 1027.7 in /  34797.9 hPa Calm   4.8 mph /  7.7 km/h 92 % 0.0 in /  0 mm
21:00 -4.3 °F /  -20.2 °C -5.4 °F /  -20.8 °C 1027.7 in /  34797.9 hPa Calm   3.2 mph /  5.1 km/h 92 % 0.0 in /  0 mm
21:15 -4.3 °F /  -20.2 °C -5.4 °F /  -20.8 °C 1028.0 in /  34808.1 hPa SE 1.6 mph /  2.6 km/h 8.0 mph /  12.9 km/h 92 % 0.0 in /  0 mm
21:30 -4.2 °F /  -20.1 °C -5.3 °F /  -20.7 °C 1028.3 in /  34818.2 hPa Calm   8.0 mph /  12.9 km/h 92 % 0.0 in /  0 mm
21:45 -4.2 °F /  -20.1 °C -5.3 °F /  -20.7 °C 1028.7 in /  34831.8 hPa SE 1.6 mph /  2.6 km/h 11.3 mph /  18.2 km/h 92 % 0.0 in /  0 mm
22:00 -4.3 °F /  -20.2 °C -5.5 °F /  -20.8 °C 1029.0 in /  34841.9 hPa ENE 1.6 mph /  2.6 km/h 9.7 mph /  15.6 km/h 91 % 0.0 in /  0 mm
22:15 -4.6 °F /  -20.3 °C -5.9 °F /  -21.1 °C 1029.0 in /  34841.9 hPa ENE 1.6 mph /  2.6 km/h 8.0 mph /  12.9 km/h 90 % 0.0 in /  0 mm
22:30 -4.7 °F /  -20.4 °C -6.1 °F /  -21.2 °C 1029.3 in /  34852.1 hPa East 1.6 mph /  2.6 km/h 8.0 mph /  12.9 km/h 90 % 0.0 in /  0 mm
22:45 -4.8 °F /  -20.4 °C -6.2 °F /  -21.2 °C 1029.7 in /  34865.6 hPa SE 1.6 mph /  2.6 km/h 11.3 mph /  18.2 km/h 90 % 0.0 in /  0 mm
23:00 -4.9 °F /  -20.5 °C -6.3 °F /  -21.3 °C 1029.7 in /  34865.6 hPa SSE 1.6 mph /  2.6 km/h 8.0 mph /  12.9 km/h 90 % 0.0 in /  0 mm
23:15 -5.0 °F /  -20.6 °C -6.4 °F /  -21.3 °C 1030.0 in /  34875.8 hPa SE 1.6 mph /  2.6 km/h 9.7 mph /  15.6 km/h 90 % 0.0 in /  0 mm
23:30 -5.1 °F /  -20.6 °C -6.4 °F /  -21.3 °C 1030.0 in /  34875.8 hPa SE 1.6 mph /  2.6 km/h 8.0 mph /  12.9 km/h 90 % 0.0 in /  0 mm
23:45 -5.1 °F /  -20.6 °C -6.4 °F /  -21.3 °C 1030.4 in /  34889.3 hPa ESE 1.6 mph /  2.6 km/h 8.0 mph /  12.9 km/h 90 % 0.0 in /  0 mm
Esan sääasema
Terveisin Weather Underground - 2.75 mb

Alkuperäinen skripti  Jim McMurry - jmcmurry@mwt.net Sovitettu myös templatelle  Wim van der Kuil - Leuven-Template.eu

Laitteet joita käytämme:

Sääasema
Davis VP2

Sääasemaohjelma
Cumulus

Sääaseman tietokone
Asus EeePC

Palveluntarjoaja
Suncomet

Davis VP2

Cumulus

Asus EeePC

Suncomet